sensor_id;sensor_type;location;lat;lon;timestamp;pressure;altitude;pressure_sealevel;temperature;humidity
20394;BME280;10356;50.544;9.642;2023-01-28T00:01:20;99132.09;;;0.95;100.00
20394;BME280;10356;50.544;9.642;2023-01-28T00:03:48;99128.63;;;0.96;100.00
20394;BME280;10356;50.544;9.642;2023-01-28T00:06:16;99125.09;;;1.00;100.00
20394;BME280;10356;50.544;9.642;2023-01-28T00:08:43;99119.22;;;0.96;100.00
20394;BME280;10356;50.544;9.642;2023-01-28T00:11:11;99119.25;;;0.95;100.00
20394;BME280;10356;50.544;9.642;2023-01-28T00:13:38;99122.59;;;0.98;100.00
20394;BME280;10356;50.544;9.642;2023-01-28T00:16:07;99122.59;;;0.98;100.00
20394;BME280;10356;50.544;9.642;2023-01-28T00:18:34;99122.66;;;0.95;100.00
20394;BME280;10356;50.544;9.642;2023-01-28T00:21:03;99113.16;;;0.99;100.00
20394;BME280;10356;50.544;9.642;2023-01-28T00:23:33;99119.28;;;0.93;100.00
20394;BME280;10356;50.544;9.642;2023-01-28T00:26:01;99126.00;;;0.99;100.00
20394;BME280;10356;50.544;9.642;2023-01-28T00:28:29;99124.44;;;0.92;100.00
20394;BME280;10356;50.544;9.642;2023-01-28T00:30:56;99128.78;;;0.90;100.00
20394;BME280;10356;50.544;9.642;2023-01-28T00:33:22;99123.59;;;0.93;100.00
20394;BME280;10356;50.544;9.642;2023-01-28T00:35:56;99115.88;;;0.93;100.00
20394;BME280;10356;50.544;9.642;2023-01-28T00:38:23;99110.66;;;0.96;100.00
20394;BME280;10356;50.544;9.642;2023-01-28T00:40:51;99112.44;;;0.94;100.00
20394;BME280;10356;50.544;9.642;2023-01-28T00:43:17;99120.13;;;0.94;100.00
20394;BME280;10356;50.544;9.642;2023-01-28T00:45:44;99121.03;;;0.93;100.00
20394;BME280;10356;50.544;9.642;2023-01-28T00:48:10;99125.09;;;1.00;100.00
20394;BME280;10356;50.544;9.642;2023-01-28T00:50:37;99120.06;;;0.97;100.00
20394;BME280;10356;50.544;9.642;2023-01-28T00:53:04;99121.03;;;0.93;100.00
20394;BME280;10356;50.544;9.642;2023-01-28T00:55:31;99113.34;;;0.91;100.00
20394;BME280;10356;50.544;9.642;2023-01-28T00:57:58;99116.69;;;0.95;100.00
20394;BME280;10356;50.544;9.642;2023-01-28T01:00:25;99128.63;;;0.96;100.00
20394;BME280;10356;50.544;9.642;2023-01-28T01:02:52;99121.97;;;0.89;100.00
20394;BME280;10356;50.544;9.642;2023-01-28T01:05:18;99116.91;;;0.85;100.00
20394;BME280;10356;50.544;9.642;2023-01-28T01:07:45;99112.53;;;0.91;100.00
20394;BME280;10356;50.544;9.642;2023-01-28T01:10:13;99118.50;;;0.90;100.00
20394;BME280;10356;50.544;9.642;2023-01-28T01:12:40;99109.16;;;0.89;100.00
20394;BME280;10356;50.544;9.642;2023-01-28T01:15:09;99117.72;;;0.88;100.00
20394;BME280;10356;50.544;9.642;2023-01-28T01:17:36;99115.25;;;0.84;100.00
20394;BME280;10356;50.544;9.642;2023-01-28T01:20:04;99115.94;;;0.90;100.00
20394;BME280;10356;50.544;9.642;2023-01-28T01:22:32;99122.03;;;0.85;100.00
20394;BME280;10356;50.544;9.642;2023-01-28T01:24:58;99118.50;;;0.90;100.00
20394;BME280;10356;50.544;9.642;2023-01-28T01:27:25;99127.94;;;0.89;100.00
20394;BME280;10356;50.544;9.642;2023-01-28T01:29:51;99120.28;;;0.88;100.00
20394;BME280;10356;50.544;9.642;2023-01-28T01:32:19;99129.78;;;0.84;100.00
20394;BME280;10356;50.544;9.642;2023-01-28T01:34:46;99132.25;;;0.89;100.00
20394;BME280;10356;50.544;9.642;2023-01-28T01:37:13;99121.97;;;0.89;100.00
20394;BME280;10356;50.544;9.642;2023-01-28T01:39:40;99133.91;;;0.90;100.00
20394;BME280;10356;50.544;9.642;2023-01-28T01:42:09;99133.19;;;0.84;100.00
20394;BME280;10356;50.544;9.642;2023-01-28T01:44:55;99139.28;;;0.80;100.00
20394;BME280;10356;50.544;9.642;2023-01-28T01:47:26;99157.81;;;0.92;100.00
20394;BME280;10356;50.544;9.642;2023-01-28T01:49:55;99148.53;;;0.86;100.00
20394;BME280;10356;50.544;9.642;2023-01-28T01:52:28;99151.22;;;0.81;100.00
20394;BME280;10356;50.544;9.642;2023-01-28T01:54:59;99156.34;;;0.81;100.00
20394;BME280;10356;50.544;9.642;2023-01-28T01:57:30;99148.59;;;0.83;100.00
20394;BME280;10356;50.544;9.642;2023-01-28T01:59:59;99141.72;;;0.85;100.00
20394;BME280;10356;50.544;9.642;2023-01-28T02:02:34;99151.22;;;0.81;100.00
20394;BME280;10356;50.544;9.642;2023-01-28T02:05:03;99147.78;;;0.82;100.00
20394;BME280;10356;50.544;9.642;2023-01-28T02:07:30;99144.28;;;0.85;100.00
20394;BME280;10356;50.544;9.642;2023-01-28T02:09:56;99151.16;;;0.84;100.00
20394;BME280;10356;50.544;9.642;2023-01-28T02:12:26;99158.69;;;0.91;100.00
20394;BME280;10356;50.544;9.642;2023-01-28T02:14:59;99154.56;;;0.83;100.00
20394;BME280;10356;50.544;9.642;2023-01-28T02:17:27;99152.97;;;0.79;100.00
20394;BME280;10356;50.544;9.642;2023-01-28T02:19:57;99152.81;;;0.85;100.00
20394;BME280;10356;50.544;9.642;2023-01-28T02:25:47;99157.41;;;0.73;100.00
20394;BME280;10356;50.544;9.642;2023-01-28T02:28:30;99156.47;;;0.75;100.00
20394;BME280;10356;50.544;9.642;2023-01-28T02:31:06;99157.44;;;0.71;100.00
20394;BME280;10356;50.544;9.642;2023-01-28T02:33:39;99163.31;;;0.76;100.00
20394;BME280;10356;50.544;9.642;2023-01-28T02:36:15;99156.63;;;0.69;100.00
20394;BME280;10356;50.544;9.642;2023-01-28T02:38:45;99160.00;;;0.71;100.00
20394;BME280;10356;50.544;9.642;2023-01-28T02:41:19;99167.69;;;0.71;100.00
20394;BME280;10356;50.544;9.642;2023-01-28T02:43:48;99165.22;;;0.68;100.00
20394;BME280;10356;50.544;9.642;2023-01-28T02:46:20;99168.66;;;0.67;100.00
20394;BME280;10356;50.544;9.642;2023-01-28T02:49:07;99166.78;;;0.74;100.00
20394;BME280;10356;50.544;9.642;2023-01-28T02:51:46;99173.78;;;0.67;100.00
20394;BME280;10356;50.544;9.642;2023-01-28T02:54:21;99177.94;;;0.71;100.00
20394;BME280;10356;50.544;9.642;2023-01-28T02:56:56;99175.38;;;0.71;100.00
20394;BME280;10356;50.544;9.642;2023-01-28T02:59:27;99182.09;;;0.77;100.00
20394;BME280;10356;50.544;9.642;2023-01-28T03:02:03;99177.91;;;0.74;100.00
20394;BME280;10356;50.544;9.642;2023-01-28T03:04:36;99180.59;;;0.68;100.00
20394;BME280;10356;50.544;9.642;2023-01-28T03:07:06;99177.00;;;0.75;100.00
20394;BME280;10356;50.544;9.642;2023-01-28T03:09:34;99171.97;;;0.72;100.00
20394;BME280;10356;50.544;9.642;2023-01-28T03:12:04;99183.13;;;0.70;100.00
20394;BME280;10356;50.544;9.642;2023-01-28T03:14:53;99181.56;;;0.63;100.00
20394;BME280;10356;50.544;9.642;2023-01-28T03:17:43;99184.13;;;0.64;100.00
20394;BME280;10356;50.544;9.642;2023-01-28T03:20:33;99183.22;;;0.65;100.00
20394;BME280;10356;50.544;9.642;2023-01-28T03:23:21;99187.50;;;0.66;100.00
20394;BME280;10356;50.544;9.642;2023-01-28T03:26:10;99195.09;;;0.69;100.00
20394;BME280;10356;50.544;9.642;2023-01-28T03:29:02;99194.22;;;0.70;100.00
20394;BME280;10356;50.544;9.642;2023-01-28T03:31:51;99195.91;;;0.71;100.00
20394;BME280;10356;50.544;9.642;2023-01-28T03:34:36;99198.59;;;0.65;100.00
20394;BME280;10356;50.544;9.642;2023-01-28T03:37:21;99195.22;;;0.63;100.00
20394;BME280;10356;50.544;9.642;2023-01-28T03:39:47;99193.53;;;0.64;100.00
20394;BME280;10356;50.544;9.642;2023-01-28T03:42:14;99196.94;;;0.64;100.00
20394;BME280;10356;50.544;9.642;2023-01-28T03:44:43;99197.06;;;0.58;100.00
20394;BME280;10356;50.544;9.642;2023-01-28T03:47:18;99201.13;;;0.68;100.00
20394;BME280;10356;50.544;9.642;2023-01-28T03:49:46;99209.81;;;0.61;100.00
20394;BME280;10356;50.544;9.642;2023-01-28T03:52:15;99202.19;;;0.58;100.00
20394;BME280;10356;50.544;9.642;2023-01-28T03:54:43;99199.63;;;0.58;100.00
20394;BME280;10356;50.544;9.642;2023-01-28T03:57:12;99203.97;;;0.55;100.00
20394;BME280;10356;50.544;9.642;2023-01-28T03:59:38;99199.56;;;0.61;100.00
20394;BME280;10356;50.544;9.642;2023-01-28T04:02:05;99205.53;;;0.62;100.00
20394;BME280;10356;50.544;9.642;2023-01-28T04:04:34;99215.06;;;0.55;100.00
20394;BME280;10356;50.544;9.642;2023-01-28T04:07:00;99206.47;;;0.58;100.00
20394;BME280;10356;50.544;9.642;2023-01-28T04:09:27;99200.59;;;0.54;100.00
20394;BME280;10356;50.544;9.642;2023-01-28T04:11:53;99198.97;;;0.49;100.00
20394;BME280;10356;50.544;9.642;2023-01-28T04:14:20;99199.69;;;0.55;100.00
20394;BME280;10356;50.544;9.642;2023-01-28T04:16:46;99204.78;;;0.57;100.00
20394;BME280;10356;50.544;9.642;2023-01-28T04:19:13;99201.38;;;0.56;100.00
20394;BME280;10356;50.544;9.642;2023-01-28T04:21:41;99207.19;;;0.64;100.00
20394;BME280;10356;50.544;9.642;2023-01-28T04:24:08;99204.81;;;0.55;100.00
20394;BME280;10356;50.544;9.642;2023-01-28T04:26:34;99204.72;;;0.60;100.00
20394;BME280;10356;50.544;9.642;2023-01-28T04:29:01;99203.06;;;0.57;100.00
20394;BME280;10356;50.544;9.642;2023-01-28T04:31:28;99210.03;;;0.52;100.00
20394;BME280;10356;50.544;9.642;2023-01-28T04:33:54;99207.47;;;0.52;100.00
20394;BME280;10356;50.544;9.642;2023-01-28T04:36:21;99209.94;;;0.55;100.00
20394;BME280;10356;50.544;9.642;2023-01-28T04:38:49;99209.22;;;0.50;100.00
20394;BME280;10356;50.544;9.642;2023-01-28T04:41:15;99210.78;;;0.56;100.00
20394;BME280;10356;50.544;9.642;2023-01-28T04:43:42;99210.72;;;0.59;100.00
20394;BME280;10356;50.544;9.642;2023-01-28T04:46:09;99203.06;;;0.57;100.00
20394;BME280;10356;50.544;9.642;2023-01-28T04:48:35;99199.78;;;0.52;100.00
20394;BME280;10356;50.544;9.642;2023-01-28T04:51:03;99202.25;;;0.55;100.00
20394;BME280;10356;50.544;9.642;2023-01-28T04:53:30;99204.81;;;0.55;100.00
20394;BME280;10356;50.544;9.642;2023-01-28T04:55:58;99203.34;;;0.45;100.00
20394;BME280;10356;50.544;9.642;2023-01-28T04:58:24;99203.41;;;0.42;100.00
20394;BME280;10356;50.544;9.642;2023-01-28T05:00:53;99202.34;;;0.51;100.00
20394;BME280;10356;50.544;9.642;2023-01-28T05:03:20;99206.56;;;0.53;100.00
20394;BME280;10356;50.544;9.642;2023-01-28T05:05:46;99212.66;;;0.49;100.00
20394;BME280;10356;50.544;9.642;2023-01-28T05:08:14;99224.53;;;0.53;100.00
20394;BME280;10356;50.544;9.642;2023-01-28T05:10:41;99220.47;;;0.43;100.00
20394;BME280;10356;50.544;9.642;2023-01-28T05:13:09;99216.91;;;0.50;100.00
20394;BME280;10356;50.544;9.642;2023-01-28T05:15:35;99221.19;;;0.50;100.00
20394;BME280;10356;50.544;9.642;2023-01-28T05:18:02;99229.91;;;0.41;100.00
20394;BME280;10356;50.544;9.642;2023-01-28T05:20:28;99225.81;;;0.34;100.00
20394;BME280;10356;50.544;9.642;2023-01-28T05:22:55;99229.88;;;0.43;100.00
20394;BME280;10356;50.544;9.642;2023-01-28T05:25:21;99230.00;;;0.38;100.00
20394;BME280;10356;50.544;9.642;2023-01-28T05:27:49;99247.22;;;0.32;100.00
20394;BME280;10356;50.544;9.642;2023-01-28T05:30:17;99234.31;;;0.36;100.00
20394;BME280;10356;50.544;9.642;2023-01-28T05:32:44;99243.72;;;0.36;100.00
20394;BME280;10356;50.544;9.642;2023-01-28T05:35:11;99246.34;;;0.31;100.00
20394;BME280;10356;50.544;9.642;2023-01-28T05:37:37;99238.75;;;0.27;100.00
20394;BME280;10356;50.544;9.642;2023-01-28T05:40:05;99257.47;;;0.32;100.00
20394;BME280;10356;50.544;9.642;2023-01-28T05:42:31;99260.16;;;0.26;100.00
20394;BME280;10356;50.544;9.642;2023-01-28T05:44:58;99253.31;;;0.26;100.00
20394;BME280;10356;50.544;9.642;2023-01-28T05:47:26;99258.34;;;0.29;99.66
20394;BME280;10356;50.544;9.642;2023-01-28T05:49:53;99260.06;;;0.30;99.63
20394;BME280;10356;50.544;9.642;2023-01-28T05:52:19;99263.44;;;0.32;99.01
20394;BME280;10356;50.544;9.642;2023-01-28T05:54:46;99260.78;;;0.35;98.68
20394;BME280;10356;50.544;9.642;2023-01-28T05:57:12;99267.66;;;0.33;97.03
20394;BME280;10356;50.544;9.642;2023-01-28T05:59:39;99261.72;;;0.31;97.44
20394;BME280;10356;50.544;9.642;2023-01-28T06:02:05;99267.84;;;0.26;97.75
20394;BME280;10356;50.544;9.642;2023-01-28T06:04:33;99265.22;;;0.27;98.00
20394;BME280;10356;50.544;9.642;2023-01-28T06:06:59;99267.88;;;0.24;97.29
20394;BME280;10356;50.544;9.642;2023-01-28T06:09:26;99274.59;;;0.30;95.73
20394;BME280;10356;50.544;9.642;2023-01-28T06:11:52;99273.69;;;0.32;95.94
20394;BME280;10356;50.544;9.642;2023-01-28T06:14:19;99276.28;;;0.29;94.45
20394;BME280;10356;50.544;9.642;2023-01-28T06:16:45;99272.84;;;0.32;94.17
20394;BME280;10356;50.544;9.642;2023-01-28T06:19:12;99274.59;;;0.30;94.61
20394;BME280;10356;50.544;9.642;2023-01-28T06:21:39;99274.72;;;0.24;94.44
20394;BME280;10356;50.544;9.642;2023-01-28T06:24:07;99278.16;;;0.21;93.58
20394;BME280;10356;50.544;9.642;2023-01-28T06:26:34;99273.00;;;0.23;93.56
20394;BME280;10356;50.544;9.642;2023-01-28T06:29:00;99285.94;;;0.18;94.35
20394;BME280;10356;50.544;9.642;2023-01-28T06:31:28;99295.28;;;0.19;93.43
20394;BME280;10356;50.544;9.642;2023-01-28T06:33:55;99284.09;;;0.23;93.86
20394;BME280;10356;50.544;9.642;2023-01-28T06:36:21;99295.31;;;0.18;93.83
20394;BME280;10356;50.544;9.642;2023-01-28T06:38:49;99295.38;;;0.16;93.82
20394;BME280;10356;50.544;9.642;2023-01-28T06:41:15;99297.94;;;0.15;94.58
20394;BME280;10356;50.544;9.642;2023-01-28T06:43:42;99298.66;;;0.21;93.83
20394;BME280;10356;50.544;9.642;2023-01-28T06:46:08;99301.34;;;0.15;94.04
20394;BME280;10356;50.544;9.642;2023-01-28T06:48:35;99304.84;;;0.11;93.72
20394;BME280;10356;50.544;9.642;2023-01-28T06:51:01;99296.22;;;0.15;93.28
20394;BME280;10356;50.544;9.642;2023-01-28T06:53:28;99303.09;;;0.13;93.71
20394;BME280;10356;50.544;9.642;2023-01-28T06:55:55;99302.44;;;0.04;93.55
20394;BME280;10356;50.544;9.642;2023-01-28T06:58:22;99304.91;;;0.08;93.30
20394;BME280;10356;50.544;9.642;2023-01-28T07:00:48;99306.59;;;0.09;94.16
20394;BME280;10356;50.544;9.642;2023-01-28T07:03:15;99302.34;;;0.08;94.30
20394;BME280;10356;50.544;9.642;2023-01-28T07:05:41;99315.13;;;0.10;94.73
20394;BME280;10356;50.544;9.642;2023-01-28T07:08:08;99310.06;;;0.05;93.44
20394;BME280;10356;50.544;9.642;2023-01-28T07:10:34;99311.72;;;0.09;93.71
20394;BME280;10356;50.544;9.642;2023-01-28T07:13:02;99314.25;;;0.11;94.06
20394;BME280;10356;50.544;9.642;2023-01-28T07:15:29;99312.63;;;0.05;92.64
20394;BME280;10356;50.544;9.642;2023-01-28T07:17:55;99314.38;;;0.03;92.77
20394;BME280;10356;50.544;9.642;2023-01-28T07:20:22;99309.25;;;0.03;92.56
20394;BME280;10356;50.544;9.642;2023-01-28T07:22:50;99313.53;;;0.04;93.71
20394;BME280;10356;50.544;9.642;2023-01-28T07:25:17;99323.78;;;0.04;93.53
20394;BME280;10356;50.544;9.642;2023-01-28T07:27:47;99316.78;;;0.11;93.01
20394;BME280;10356;50.544;9.642;2023-01-28T07:30:17;99315.25;;;0.04;93.11
20394;BME280;10356;50.544;9.642;2023-01-28T07:32:44;99324.66;;;0.02;92.65
20394;BME280;10356;50.544;9.642;2023-01-28T07:35:11;99323.75;;;0.06;92.88
20394;BME280;10356;50.544;9.642;2023-01-28T07:37:38;99327.09;;;0.09;93.02
20394;BME280;10356;50.544;9.642;2023-01-28T07:40:06;99327.16;;;0.06;93.06
20394;BME280;10356;50.544;9.642;2023-01-28T07:42:33;99335.81;;;-0.01;93.30
20394;BME280;10356;50.544;9.642;2023-01-28T07:44:59;99330.66;;;0.00;93.41
20394;BME280;10356;50.544;9.642;2023-01-28T07:47:27;99343.47;;;0.00;93.46
20394;BME280;10356;50.544;9.642;2023-01-28T07:49:54;99336.56;;;0.06;93.56
20394;BME280;10356;50.544;9.642;2023-01-28T07:52:20;99342.69;;;-0.03;91.97
20394;BME280;10356;50.544;9.642;2023-01-28T07:54:46;99340.97;;;-0.04;92.29
20394;BME280;10356;50.544;9.642;2023-01-28T07:57:13;99347.75;;;0.00;91.05
20394;BME280;10356;50.544;9.642;2023-01-28T07:59:47;99348.72;;;-0.07;90.96
20394;BME280;10356;50.544;9.642;2023-01-28T08:02:13;99359.69;;;0.01;90.24
20394;BME280;10356;50.544;9.642;2023-01-28T08:04:41;99364.06;;;-0.06;90.14
20394;BME280;10356;50.544;9.642;2023-01-28T08:07:08;99360.63;;;-0.06;89.42
20394;BME280;10356;50.544;9.642;2023-01-28T08:09:35;99364.94;;;-0.08;89.15
20394;BME280;10356;50.544;9.642;2023-01-28T08:12:01;99363.19;;;-0.06;89.19
20394;BME280;10356;50.544;9.642;2023-01-28T08:14:28;99362.34;;;-0.05;89.20
20394;BME280;10356;50.544;9.642;2023-01-28T08:16:54;99378.56;;;-0.06;88.35
20394;BME280;10356;50.544;9.642;2023-01-28T08:19:21;99377.84;;;-0.13;88.02
20394;BME280;10356;50.544;9.642;2023-01-28T08:21:49;99368.31;;;-0.06;87.68
20394;BME280;10356;50.544;9.642;2023-01-28T08:24:15;99366.59;;;-0.04;87.86
20394;BME280;10356;50.544;9.642;2023-01-28T08:26:42;99369.13;;;-0.04;87.80
20394;BME280;10356;50.544;9.642;2023-01-28T08:29:09;99368.25;;;0.00;88.41
20394;BME280;10356;50.544;9.642;2023-01-28T08:31:35;99371.66;;;-0.01;88.05
20394;BME280;10356;50.544;9.642;2023-01-28T08:34:01;99375.03;;;0.01;88.79
20394;BME280;10356;50.544;9.642;2023-01-28T08:36:28;99364.81;;;0.01;88.99
20394;BME280;10356;50.544;9.642;2023-01-28T08:38:56;99365.66;;;0.02;88.62
20394;BME280;10356;50.544;9.642;2023-01-28T08:41:23;99367.31;;;0.03;88.97
20394;BME280;10356;50.544;9.642;2023-01-28T08:43:49;99374.84;;;0.13;88.38
20394;BME280;10356;50.544;9.642;2023-01-28T08:46:16;99371.53;;;0.08;84.62
20394;BME280;10356;50.544;9.642;2023-01-28T08:48:43;99373.03;;;0.18;84.27
20394;BME280;10356;50.544;9.642;2023-01-28T08:51:09;99374.78;;;0.15;84.04
20394;BME280;10356;50.544;9.642;2023-01-28T08:53:36;99379.97;;;0.13;83.71
20394;BME280;10356;50.544;9.642;2023-01-28T08:56:04;99378.97;;;0.22;83.52
20394;BME280;10356;50.544;9.642;2023-01-28T08:58:31;99390.94;;;0.20;83.27
20394;BME280;10356;50.544;9.642;2023-01-28T09:00:57;99390.09;;;0.19;82.32
20394;BME280;10356;50.544;9.642;2023-01-28T09:03:24;99389.34;;;0.13;81.83
20394;BME280;10356;50.544;9.642;2023-01-28T09:05:50;99382.41;;;0.19;81.08
20394;BME280;10356;50.544;9.642;2023-01-28T09:08:17;99373.97;;;0.13;81.31
20394;BME280;10356;50.544;9.642;2023-01-28T09:10:43;99375.75;;;0.09;82.53
20394;BME280;10356;50.544;9.642;2023-01-28T09:13:13;99381.66;;;0.14;81.36
20394;BME280;10356;50.544;9.642;2023-01-28T09:15:40;99385.91;;;0.15;80.94
20394;BME280;10356;50.544;9.642;2023-01-28T09:18:07;99391.84;;;0.17;79.96
20394;BME280;10356;50.544;9.642;2023-01-28T09:20:34;99395.34;;;0.13;79.52
20394;BME280;10356;50.544;9.642;2023-01-28T09:23:01;99384.22;;;0.13;79.87
20394;BME280;10356;50.544;9.642;2023-01-28T09:25:27;99386.66;;;0.22;80.39
20394;BME280;10356;50.544;9.642;2023-01-28T09:27:54;99391.84;;;0.17;81.25
20394;BME280;10356;50.544;9.642;2023-01-28T09:30:22;99395.06;;;0.27;80.17
20394;BME280;10356;50.544;9.642;2023-01-28T09:32:49;99395.84;;;0.32;80.72
20394;BME280;10356;50.544;9.642;2023-01-28T09:35:16;99403.63;;;0.27;79.28
20394;BME280;10356;50.544;9.642;2023-01-28T09:37:43;99396.75;;;0.29;77.96
20394;BME280;10356;50.544;9.642;2023-01-28T09:40:13;99398.50;;;0.27;79.07
20394;BME280;10356;50.544;9.642;2023-01-28T09:43:03;99404.59;;;0.22;80.01
20394;BME280;10356;50.544;9.642;2023-01-28T09:45:37;99401.84;;;0.32;79.59
20394;BME280;10356;50.544;9.642;2023-01-28T09:48:09;99408.72;;;0.30;79.45
20394;BME280;10356;50.544;9.642;2023-01-28T09:50:41;99421.50;;;0.32;79.30
20394;BME280;10356;50.544;9.642;2023-01-28T09:53:12;99414.53;;;0.38;79.92
20394;BME280;10356;50.544;9.642;2023-01-28T09:55:43;99424.91;;;0.32;78.46
20394;BME280;10356;50.544;9.642;2023-01-28T09:58:12;99423.13;;;0.36;79.30
20394;BME280;10356;50.544;9.642;2023-01-28T10:00:46;99425.59;;;0.40;78.55
20394;BME280;10356;50.544;9.642;2023-01-28T10:03:47;99433.41;;;0.34;77.13
20394;BME280;10356;50.544;9.642;2023-01-28T10:06:22;99430.84;;;0.34;77.25
20394;BME280;10356;50.544;9.642;2023-01-28T10:09:13;99435.97;;;0.34;76.34
20394;BME280;10356;50.544;9.642;2023-01-28T10:11:55;99430.81;;;0.36;77.11
20394;BME280;10356;50.544;9.642;2023-01-28T10:14:34;99437.50;;;0.44;77.31
20394;BME280;10356;50.544;9.642;2023-01-28T10:17:09;99433.31;;;0.40;75.70
20394;BME280;10356;50.544;9.642;2023-01-28T10:19:41;99439.88;;;0.53;76.19
20394;BME280;10356;50.544;9.642;2023-01-28T10:22:13;99433.34;;;0.37;74.24
20394;BME280;10356;50.544;9.642;2023-01-28T10:24:45;99437.38;;;0.49;73.94
20394;BME280;10356;50.544;9.642;2023-01-28T10:27:15;99443.59;;;0.37;75.32
20394;BME280;10356;50.544;9.642;2023-01-28T10:29:42;99441.75;;;0.45;76.28
20394;BME280;10356;50.544;9.642;2023-01-28T10:32:22;99438.31;;;0.46;75.61
20394;BME280;10356;50.544;9.642;2023-01-28T10:34:52;99450.38;;;0.40;75.23
20394;BME280;10356;50.544;9.642;2023-01-28T10:37:18;99444.38;;;0.42;76.39
20394;BME280;10356;50.544;9.642;2023-01-28T10:39:46;99441.00;;;0.40;74.78
20394;BME280;10356;50.544;9.642;2023-01-28T10:42:17;99440.81;;;0.49;75.82
20394;BME280;10356;50.544;9.642;2023-01-28T10:44:46;99442.53;;;0.49;77.10
20394;BME280;10356;50.544;9.642;2023-01-28T10:47:19;99439.13;;;0.48;75.44
20394;BME280;10356;50.544;9.642;2023-01-28T10:49:55;99443.59;;;0.37;74.66
20394;BME280;10356;50.544;9.642;2023-01-28T10:52:25;99437.50;;;0.43;73.85
20394;BME280;10356;50.544;9.642;2023-01-28T10:54:58;99439.31;;;0.38;73.43
20394;BME280;10356;50.544;9.642;2023-01-28T10:57:25;99433.91;;;0.54;74.87
20394;BME280;10356;50.544;9.642;2023-01-28T10:59:52;99428.78;;;0.54;74.88
20394;BME280;10356;50.544;9.642;2023-01-28T11:02:25;99431.72;;;0.77;74.40
20394;BME280;10356;50.544;9.642;2023-01-28T11:05:14;99424.22;;;0.68;75.14
20394;BME280;10356;50.544;9.642;2023-01-28T11:07:42;99428.22;;;0.81;74.49
20394;BME280;10356;50.544;9.642;2023-01-28T11:10:24;99437.75;;;0.76;71.85
20394;BME280;10356;50.544;9.642;2023-01-28T11:12:54;99430.97;;;0.72;73.94
20394;BME280;10356;50.544;9.642;2023-01-28T11:15:21;99429.44;;;0.64;72.29
20394;BME280;10356;50.544;9.642;2023-01-28T11:17:51;99426.63;;;0.76;73.00
20394;BME280;10356;50.544;9.642;2023-01-28T11:20:23;99427.53;;;0.73;72.69
20394;BME280;10356;50.544;9.642;2023-01-28T11:22:51;99433.44;;;0.78;73.04
20394;BME280;10356;50.544;9.642;2023-01-28T11:25:27;99437.50;;;0.87;71.49
20394;BME280;10356;50.544;9.642;2023-01-28T11:27:55;99436.13;;;0.72;71.62
20394;BME280;10356;50.544;9.642;2023-01-28T11:30:23;99438.41;;;0.86;70.75
20394;BME280;10356;50.544;9.642;2023-01-28T11:33:03;99431.59;;;0.83;70.49
20394;BME280;10356;50.544;9.642;2023-01-28T11:35:31;99433.78;;;0.60;71.67
20394;BME280;10356;50.544;9.642;2023-01-28T11:37:58;99430.06;;;0.76;70.24
20394;BME280;10356;50.544;9.642;2023-01-28T11:40:25;99438.56;;;0.78;70.90
20394;BME280;10356;50.544;9.642;2023-01-28T11:42:52;99428.88;;;0.91;71.70
20394;BME280;10356;50.544;9.642;2023-01-28T11:45:26;99425.66;;;0.81;71.56
20394;BME280;10356;50.544;9.642;2023-01-28T11:48:11;99418.22;;;0.69;70.37
20394;BME280;10356;50.544;9.642;2023-01-28T11:50:44;99412.75;;;0.86;71.53
20394;BME280;10356;50.544;9.642;2023-01-28T11:53:32;99409.47;;;0.79;71.48
20394;BME280;10356;50.544;9.642;2023-01-28T11:56:18;99411.97;;;0.81;70.90
20394;BME280;10356;50.544;9.642;2023-01-28T11:58:56;99414.16;;;1.01;70.77
20394;BME280;10356;50.544;9.642;2023-01-28T12:01:37;99412.72;;;0.88;70.23
20394;BME280;10356;50.544;9.642;2023-01-28T12:04:30;99411.53;;;0.62;70.55
20394;BME280;10356;50.544;9.642;2023-01-28T12:07:16;99413.97;;;0.68;71.68
20394;BME280;10356;50.544;9.642;2023-01-28T12:09:54;99411.63;;;0.56;71.48
20394;BME280;10356;50.544;9.642;2023-01-28T12:12:37;99411.44;;;0.65;72.13
20394;BME280;10356;50.544;9.642;2023-01-28T12:15:23;99415.75;;;0.63;69.96
20394;BME280;10356;50.544;9.642;2023-01-28T12:18:02;99399.72;;;0.54;71.85
20394;BME280;10356;50.544;9.642;2023-01-28T12:20:39;99398.69;;;0.61;70.53
20394;BME280;10356;50.544;9.642;2023-01-28T12:26:05;99404.69;;;0.61;72.02
20394;BME280;10356;50.544;9.642;2023-01-28T12:28:53;99398.81;;;0.55;72.65
20394;BME280;10356;50.544;9.642;2023-01-28T12:31:47;99397.19;;;0.52;71.85
20394;BME280;10356;50.544;9.642;2023-01-28T12:34:41;99402.06;;;0.64;70.72
20394;BME280;10356;50.544;9.642;2023-01-28T12:37:17;99394.44;;;0.61;70.67
20394;BME280;10356;50.544;9.642;2023-01-28T12:39:59;99390.69;;;0.77;70.51
20394;BME280;10356;50.544;9.642;2023-01-28T12:42:32;99398.69;;;0.61;71.83
20394;BME280;10356;50.544;9.642;2023-01-28T12:45:03;99390.81;;;0.71;71.27
20394;BME280;10356;50.544;9.642;2023-01-28T12:47:38;99389.94;;;0.72;71.58
20394;BME280;10356;50.544;9.642;2023-01-28T12:50:12;99382.06;;;0.81;70.99
20394;BME280;10356;50.544;9.642;2023-01-28T12:52:46;99381.41;;;0.72;71.06
20394;BME280;10356;50.544;9.642;2023-01-28T12:55:17;99389.94;;;0.72;71.13
20394;BME280;10356;50.544;9.642;2023-01-28T12:57:46;99378.72;;;0.78;72.16
20394;BME280;10356;50.544;9.642;2023-01-28T13:00:21;99379.63;;;0.75;70.67
20394;BME280;10356;50.544;9.642;2023-01-28T13:02:55;99376.06;;;0.81;70.24
20394;BME280;10356;50.544;9.642;2023-01-28T13:05:27;99374.31;;;0.83;71.73
20394;BME280;10356;50.544;9.642;2023-01-28T13:08:02;99384.56;;;0.84;72.00
20394;BME280;10356;50.544;9.642;2023-01-28T13:10:34;99401.06;;;0.71;70.32
20394;BME280;10356;50.544;9.642;2023-01-28T13:13:02;99402.91;;;0.66;69.91
20394;BME280;10356;50.544;9.642;2023-01-28T13:15:30;99398.78;;;0.58;70.50
20394;BME280;10356;50.544;9.642;2023-01-28T13:17:58;99398.91;;;0.95;71.07
20394;BME280;10356;50.544;9.642;2023-01-28T13:20:30;99402.94;;;0.63;70.11
20394;BME280;10356;50.544;9.642;2023-01-28T13:23:03;99404.75;;;0.58;70.03
20394;BME280;10356;50.544;9.642;2023-01-28T13:25:33;99414.16;;;0.58;69.61
20394;BME280;10356;50.544;9.642;2023-01-28T13:28:01;99406.28;;;0.68;71.46